createdAt,value
2023-06-19T00:01:22.303Z,19.67
2023-06-19T00:16:26.501Z,19.58
2023-06-19T00:31:31.291Z,19.71
2023-06-19T00:46:33.501Z,19.58
2023-06-19T01:01:35.928Z,19.55
2023-06-19T01:16:39.009Z,19.39
2023-06-19T01:32:16.918Z,19.20
2023-06-19T01:47:21.308Z,18.98
2023-06-19T02:02:23.446Z,18.99
2023-06-19T02:17:25.517Z,18.71
2023-06-19T02:32:27.864Z,18.74
2023-06-19T02:47:31.763Z,18.68
2023-06-19T03:02:33.937Z,18.66
2023-06-19T03:17:36.271Z,18.78
2023-06-19T03:32:38.247Z,18.69
2023-06-19T03:47:40.314Z,20.13
2023-06-19T04:02:42.714Z,21.69
2023-06-19T04:17:44.811Z,23.03
2023-06-19T04:32:46.927Z,23.95
2023-06-19T04:47:54.083Z,25.25
2023-06-19T05:03:00.813Z,26.83
2023-06-19T05:18:03.037Z,28.01
2023-06-19T05:33:05.433Z,28.57
2023-06-19T05:48:07.483Z,28.63
2023-06-19T06:03:09.602Z,28.86
2023-06-19T06:18:11.762Z,28.55
2023-06-19T06:33:13.880Z,27.63
2023-06-19T06:48:17.249Z,27.72
2023-06-19T07:03:19.807Z,28.42
2023-06-19T07:18:22.090Z,28.57
2023-06-19T07:33:24.097Z,27.65
2023-06-19T07:48:26.179Z,27.52
2023-06-19T08:03:28.641Z,27.80
2023-06-19T08:18:30.514Z,27.22
2023-06-19T08:33:32.309Z,28.17
2023-06-19T08:48:37.119Z,28.18
2023-06-19T09:03:39.085Z,28.09
2023-06-19T09:18:46.478Z,27.93
2023-06-19T09:33:48.363Z,27.37
2023-06-19T09:48:55.909Z,27.63
2023-06-19T10:04:06.125Z,26.69
2023-06-19T10:19:19.472Z,26.94
2023-06-19T10:34:22.139Z,26.96
2023-06-19T10:49:24.611Z,27.08
2023-06-19T11:04:26.792Z,27.28
2023-06-19T11:19:31.873Z,27.35
2023-06-19T11:34:36.826Z,27.77
2023-06-19T11:49:39.340Z,27.96
2023-06-19T12:04:41.403Z,28.54
2023-06-19T12:19:43.423Z,28.30
2023-06-19T12:34:47.558Z,28.87
2023-06-19T12:49:49.394Z,28.68
2023-06-19T13:04:51.414Z,29.02
2023-06-19T13:19:53.371Z,28.12
2023-06-19T13:34:55.277Z,28.01
2023-06-19T13:49:57.214Z,28.54
2023-06-19T14:04:59.004Z,28.99
2023-06-19T14:20:00.899Z,29.01
2023-06-19T14:35:03.008Z,28.71
2023-06-19T14:50:05.177Z,28.64
2023-06-19T15:05:07.777Z,27.67
2023-06-19T15:20:10.152Z,27.81
2023-06-19T15:35:12.659Z,28.03
2023-06-19T15:50:14.665Z,27.43
2023-06-19T16:05:16.716Z,27.28
2023-06-19T16:20:18.518Z,26.85
2023-06-19T16:35:23.501Z,26.48
2023-06-19T16:50:35.662Z,25.82
2023-06-19T17:05:42.663Z,25.61
2023-06-19T17:36:05.625Z,24.96
2023-06-19T18:40:00.444Z,23.65
2023-06-19T18:55:02.708Z,23.50
2023-06-19T19:10:06.693Z,23.18
2023-06-19T19:25:08.918Z,22.92
2023-06-19T19:40:15.672Z,22.71
2023-06-19T19:55:31.435Z,22.57
2023-06-19T20:10:39.070Z,22.29
2023-06-19T20:25:40.941Z,21.74
2023-06-19T20:40:42.990Z,21.37
2023-06-19T20:55:46.294Z,21.04
2023-06-19T21:10:48.402Z,20.79
2023-06-19T21:25:50.549Z,21.09
2023-06-19T21:40:52.378Z,21.12
2023-06-19T21:56:03.910Z,21.03
2023-06-19T22:11:05.760Z,20.76
2023-06-19T22:26:07.691Z,20.69
2023-06-19T22:41:09.532Z,20.71
2023-06-19T22:56:11.423Z,20.51
2023-06-19T23:11:13.244Z,20.31
2023-06-19T23:26:15.812Z,20.29
2023-06-19T23:41:18.983Z,20.20
2023-06-19T23:56:20.914Z,19.67
